Hlavní strana
METAR-TAF:

METAR-TAF

Letiště :

South Alabama Regional Airport

Andalusia, Alabama, Spojené státy americké

zeměpisná šířka: 31-18-00N, zeměpisná délka: 086-23-00W, výška: 94 m

Aktuální stav počasí

Zpráva byla vytvořena před 33 minutami, v 10:56 UTC
Bezvětří
Teplota 21°C
Vlhkost vzduchu 88%
Tlak 1021 hPa
Viditelnost: 6.4 km
Skoro jasno ve výšce 100 ft
kouřmo

METAR: K79J 241056Z AUTO 00000KT 4SM BR FEW001 21/19 A3015 RMK AO2 SLP205 T02110189 $

Čas: 06:29 (11:29 UTC)


TAF: chybějící

Stav a předpovědi počasí z více než 4 000 letišť (zprávy METAR a TAF).

Červené a žluté tečky na mapě představují dostupné meteorologické stanice.

Když kurzor umístíte na tečku, zobrazí se název stanice.

Pak kliknutím zobrazíte stav a předpověď počasí.

Chcete-li změnit mapu, kliknutím na zelené tlačítko se znaménkem +mapu přiblížíte, kliknutím na zelené tlačítko se znaménkem – mapu oddálíte a kliknutím na zelené šipky přejdete na sousední mapy.


METAR-TAF: